Time;durP1;ratioP1;P1;durP2;ratioP2;P2;SDS_P1;SDS_P2;PMS_P1;PMS_P2;Temp;Humidity;BMP_temperature;BMP_pressure;BME280_temperature;BME280_humidity;BME280_pressure;Samples;Min_cycle;Max_cycle;Signal;HPM_P1;HPM_P2
2021/09/05 00:01:16;;;;;;;0.30;0.20;;;14.10;99.90;;;;;;5033952;28;20185;-67
2021/09/05 00:03:41;;;;;;;0.70;0.70;;;14.10;99.90;;;;;;5034007;28;20515;-63
2021/09/05 00:06:12;;;;;;;1.13;1.03;;;14.00;99.90;;;;;;5033958;28;20675;-67
2021/09/05 00:08:37;;;;;;;0.35;0.10;;;14.00;99.90;;;;;;5033844;28;20446;-63
2021/09/05 00:11:03;;;;;;;3.17;1.07;;;14.10;99.90;;;;;;5033961;28;20686;-67
2021/09/05 00:13:29;;;;;;;0.47;0.23;;;14.20;99.90;;;;;;5033356;28;20216;-67
2021/09/05 00:15:58;;;;;;;1.07;0.57;;;14.30;99.90;;;;;;5033935;28;20189;-67
2021/09/05 00:18:23;;;;;;;0.30;0.20;;;14.10;99.90;;;;;;5032474;28;20503;-67
2021/09/05 00:20:49;;;;;;;0.30;0.20;;;14.10;99.90;;;;;;5033847;28;20213;-67
2021/09/05 00:23:15;;;;;;;0.30;0.20;;;14.10;99.90;;;;;;5032690;28;20196;-67
2021/09/05 00:25:40;;;;;;;0.30;0.20;;;14.10;99.90;;;;;;5033788;28;20228;-63
2021/09/05 00:28:06;;;;;;;0.30;0.20;;;14.10;99.90;;;;;;5033492;28;20181;-64
2021/09/05 00:30:32;;;;;;;1.07;0.70;;;14.10;99.90;;;;;;5033773;28;20255;-62
2021/09/05 00:32:57;;;;;;;0.30;0.20;;;14.10;99.90;;;;;;5033577;28;20536;-62
2021/09/05 00:35:23;;;;;;;0.60;0.50;;;14.20;99.90;;;;;;5033539;28;20508;-62
2021/09/05 00:37:48;;;;;;;1.67;1.57;;;14.00;99.90;;;;;;5033715;28;20215;-66
2021/09/05 00:40:14;;;;;;;3.13;2.27;;;14.00;99.90;;;;;;5033769;28;20188;-66
2021/09/05 00:42:40;;;;;;;0.30;0.20;;;13.90;99.90;;;;;;5033474;28;20618;-66
2021/09/05 00:45:06;;;;;;;0.73;0.73;;;13.90;99.90;;;;;;5033723;28;20256;-63
2021/09/05 00:47:32;;;;;;;0.30;0.20;;;13.80;99.90;;;;;;5033533;28;20515;-63
2021/09/05 00:49:57;;;;;;;0.30;0.20;;;13.90;99.90;;;;;;5033503;28;20232;-63
2021/09/05 00:52:24;;;;;;;0.30;0.20;;;14.00;99.90;;;;;;5033486;28;20181;-67
2021/09/05 00:54:50;;;;;;;0.30;0.20;;;14.00;99.90;;;;;;5033618;28;20173;-63
2021/09/05 00:57:17;;;;;;;0.30;0.20;;;14.00;99.90;;;;;;5033425;28;20291;-63
2021/09/05 00:59:47;;;;;;;0.30;0.20;;;14.00;99.90;;;;;;5032478;28;20189;-67
2021/09/05 01:02:14;;;;;;;0.30;0.20;;;14.00;99.90;;;;;;5033535;28;20185;-66
2021/09/05 01:04:39;;;;;;;0.35;0.22;;;13.80;99.90;;;;;;5033395;28;20174;-66
2021/09/05 01:07:05;;;;;;;0.30;0.10;;;13.80;99.90;;;;;;5033493;28;20262;-62
2021/09/05 01:09:31;;;;;;;0.30;0.20;;;13.80;99.90;;;;;;5033390;28;20182;-62
2021/09/05 01:11:58;;;;;;;1.33;1.20;;;13.70;99.90;;;;;;5033403;28;20424;-68
2021/09/05 01:14:25;;;;;;;0.30;0.20;;;13.70;99.90;;;;;;5034375;28;20776;-63
2021/09/05 01:16:53;;;;;;;0.40;0.32;;;13.70;99.90;;;;;;5037227;28;20240;-67
2021/09/05 01:19:21;;;;;;;0.50;0.40;;;13.70;99.90;;;;;;5037523;28;20578;-63
2021/09/05 01:21:48;;;;;;;0.30;0.20;;;13.70;99.90;;;;;;5037313;28;20169;-67
2021/09/05 01:24:14;;;;;;;0.57;0.43;;;13.70;99.90;;;;;;5037281;28;20242;-66
2021/09/05 01:26:43;;;;;;;1.92;1.80;;;13.60;99.90;;;;;;5037001;28;20217;-62
2021/09/05 01:29:10;;;;;;;0.85;0.75;;;13.50;99.90;;;;;;5036969;28;20185;-66
2021/09/05 01:31:43;;;;;;;2.90;2.67;;;13.60;99.90;;;;;;5037117;28;20184;-63
2021/09/05 01:34:10;;;;;;;0.40;0.30;;;13.50;99.90;;;;;;5036898;28;20179;-63
2021/09/05 01:36:38;;;;;;;0.30;0.30;;;13.50;99.90;;;;;;5036543;28;20509;-63
2021/09/05 01:39:05;;;;;;;0.30;0.20;;;13.60;99.90;;;;;;5036736;28;20481;-62
2021/09/05 01:41:31;;;;;;;0.30;0.20;;;13.40;99.90;;;;;;5036684;28;20180;-63
2021/09/05 01:44:02;;;;;;;0.30;0.10;;;13.50;99.90;;;;;;5036906;28;20530;-65
2021/09/05 01:46:28;;;;;;;0.32;0.20;;;13.50;99.90;;;;;;5036564;28;20191;-63
2021/09/05 01:48:54;;;;;;;0.30;0.20;;;13.50;99.90;;;;;;5036481;28;20272;-63
2021/09/05 01:51:19;;;;;;;0.30;0.20;;;13.50;99.90;;;;;;5036842;28;20681;-67
2021/09/05 01:53:45;;;;;;;0.30;0.20;;;13.60;99.90;;;;;;5036618;28;20424;-66
2021/09/05 01:56:10;;;;;;;0.30;0.20;;;13.60;99.90;;;;;;5036543;28;20478;-63
2021/09/05 01:58:36;;;;;;;0.30;0.17;;;13.70;99.90;;;;;;5036195;28;20650;-66
2021/09/05 02:01:02;;;;;;;0.30;0.20;;;13.70;99.90;;;;;;5036440;28;20516;-63
2021/09/05 02:03:27;;;;;;;0.30;0.20;;;13.70;99.90;;;;;;5036439;28;20185;-63
2021/09/05 02:05:53;;;;;;;0.30;0.20;;;13.70;99.90;;;;;;5036632;28;20189;-62
2021/09/05 02:08:18;;;;;;;0.30;0.20;;;13.60;99.90;;;;;;5036194;28;20191;-66
2021/09/05 02:10:44;;;;;;;1.17;0.60;;;13.40;99.90;;;;;;5036314;28;20215;-66
2021/09/05 02:13:10;;;;;;;0.30;0.20;;;13.20;99.90;;;;;;5036351;28;20185;-64
2021/09/05 02:15:35;;;;;;;0.33;0.23;;;13.20;99.90;;;;;;5036192;28;20661;-62
2021/09/05 02:18:01;;;;;;;0.53;0.47;;;13.10;99.90;;;;;;5036225;28;20209;-66
2021/09/05 02:20:26;;;;;;;0.30;0.20;;;13.10;99.90;;;;;;5035995;28;20178;-66
2021/09/05 02:22:52;;;;;;;0.53;0.50;;;13.10;99.90;;;;;;5036064;28;20269;-66
2021/09/05 02:25:18;;;;;;;4.10;1.13;;;13.10;99.90;;;;;;5035049;28;20209;-63
2021/09/05 02:27:43;;;;;;;0.30;0.20;;;13.00;99.90;;;;;;5035942;28;20190;-66
2021/09/05 02:30:10;;;;;;;0.40;0.30;;;13.00;99.90;;;;;;5035767;28;20502;-64
2021/09/05 02:32:36;;;;;;;0.30;0.20;;;13.00;99.90;;;;;;5036159;28;20258;-66
2021/09/05 02:35:03;;;;;;;0.30;0.20;;;13.10;99.90;;;;;;5035788;28;20185;-63
2021/09/05 02:37:28;;;;;;;0.30;0.17;;;13.10;99.90;;;;;;5035627;28;20551;-63
2021/09/05 02:39:54;;;;;;;0.30;0.20;;;13.00;99.90;;;;;;5035615;28;20264;-66
2021/09/05 02:42:19;;;;;;;0.30;0.20;;;13.10;99.90;;;;;;5035713;28;20173;-64
2021/09/05 02:44:45;;;;;;;0.30;0.20;;;13.00;99.90;;;;;;5035674;28;20256;-66
2021/09/05 02:47:13;;;;;;;0.30;0.20;;;13.10;99.90;;;;;;5035451;28;20177;-63
2021/09/05 02:49:38;;;;;;;0.80;0.80;;;13.00;99.90;;;;;;5035400;28;20647;-67
2021/09/05 02:52:05;;;;;;;0.30;0.20;;;13.10;99.90;;;;;;5035437;28;20185;-63
2021/09/05 02:54:31;;;;;;;0.40;0.30;;;13.00;99.90;;;;;;5035588;28;20197;-63
2021/09/05 02:56:57;;;;;;;0.30;0.17;;;12.90;99.90;;;;;;5035421;28;20205;-63
2021/09/05 02:59:22;;;;;;;0.30;0.20;;;13.00;99.90;;;;;;5034320;28;20448;-63
2021/09/05 03:01:48;;;;;;;0.30;0.20;;;13.10;99.90;;;;;;5035340;28;20208;-67
2021/09/05 03:04:13;;;;;;;0.30;0.20;;;13.10;99.90;;;;;;5035460;28;20269;-66
2021/09/05 03:06:39;;;;;;;0.30;0.20;;;12.90;99.90;;;;;;5034222;28;20181;-63
2021/09/05 03:09:05;;;;;;;0.30;0.17;;;12.80;99.90;;;;;;5035037;28;20181;-63
2021/09/05 03:11:30;;;;;;;0.30;0.20;;;12.90;99.90;;;;;;5035077;28;20519;-66
2021/09/05 03:13:56;;;;;;;0.30;0.20;;;13.00;99.90;;;;;;5034988;28;20190;-67
2021/09/05 03:16:22;;;;;;;0.30;0.20;;;13.00;99.90;;;;;;5035082;28;20185;-67
2021/09/05 03:18:47;;;;;;;0.40;0.20;;;13.10;99.90;;;;;;5034841;28;20178;-67
2021/09/05 03:21:12;;;;;;;0.30;0.20;;;13.10;99.90;;;;;;5035017;28;20473;-62
2021/09/05 03:23:38;;;;;;;0.30;0.20;;;13.00;99.90;;;;;;5035224;28;20243;-62
2021/09/05 03:26:03;;;;;;;0.30;0.20;;;13.00;99.90;;;;;;5035417;28;20601;-62
2021/09/05 03:28:29;;;;;;;0.30;0.20;;;13.00;99.90;;;;;;5034611;28;20213;-63
2021/09/05 03:30:55;;;;;;;0.30;0.20;;;13.00;99.90;;;;;;5034983;28;20200;-63
2021/09/05 03:33:20;;;;;;;0.30;0.20;;;13.10;99.90;;;;;;5035125;28;20188;-63
2021/09/05 03:35:46;;;;;;;0.30;0.10;;;13.10;99.90;;;;;;5040034;28;20651;-63
2021/09/05 03:38:11;;;;;;;0.30;0.23;;;12.90;99.90;;;;;;5053923;28;20236;-66
2021/09/05 03:40:37;;;;;;;0.30;0.20;;;12.90;99.90;;;;;;5054428;28;20238;-67
2021/09/05 03:43:02;;;;;;;0.30;0.20;;;12.90;99.90;;;;;;5053461;28;20224;-62
2021/09/05 03:45:28;;;;;;;0.30;0.20;;;12.90;99.90;;;;;;5045046;28;20185;-63
2021/09/05 03:47:53;;;;;;;0.30;0.20;;;12.90;99.90;;;;;;5043615;28;20181;-66
2021/09/05 03:50:19;;;;;;;0.30;0.20;;;12.70;99.90;;;;;;5048756;28;20602;-67
2021/09/05 03:52:45;;;;;;;0.30;0.20;;;12.70;99.90;;;;;;5054225;28;20249;-63
2021/09/05 03:55:11;;;;;;;0.40;0.40;;;12.70;99.90;;;;;;5054273;28;20647;-63
2021/09/05 03:57:37;;;;;;;0.30;0.10;;;12.60;99.90;;;;;;5052885;28;20223;-63
2021/09/05 04:00:03;;;;;;;0.30;0.20;;;12.50;99.90;;;;;;5054056;28;20641;-63
2021/09/05 04:02:29;;;;;;;0.30;0.20;;;12.50;99.90;;;;;;5054145;28;20181;-63
2021/09/05 04:04:54;;;;;;;0.30;0.20;;;12.50;99.90;;;;;;5054201;28;20199;-63
2021/09/05 04:07:20;;;;;;;0.30;0.30;;;12.40;99.90;;;;;;5053966;28;20208;-63
2021/09/05 04:12:31;;;;;;;0.30;0.10;;;12.50;99.90;;;;;;5054062;28;20541;-62
2021/09/05 04:14:56;;;;;;;0.30;0.20;;;12.50;99.90;;;;;;5054128;28;20188;-66
2021/09/05 04:17:22;;;;;;;0.40;0.27;;;12.30;99.90;;;;;;5053983;28;20923;-66
2021/09/05 04:19:48;;;;;;;0.30;0.20;;;12.40;99.90;;;;;;5054090;28;20543;-63
2021/09/05 04:22:14;;;;;;;0.30;0.20;;;12.30;99.90;;;;;;5054044;28;20518;-63
2021/09/05 04:24:39;;;;;;;0.30;0.20;;;12.30;99.90;;;;;;5054079;28;20204;-66
2021/09/05 04:27:05;;;;;;;0.30;0.10;;;12.20;99.90;;;;;;5053840;28;20184;-66
2021/09/05 04:29:30;;;;;;;0.50;0.30;;;12.30;99.90;;;;;;5054052;28;20223;-67
2021/09/05 04:31:56;;;;;;;0.30;0.10;;;12.30;99.90;;;;;;5053936;28;20659;-66
2021/09/05 04:34:21;;;;;;;0.40;0.30;;;12.30;99.90;;;;;;5053931;28;20181;-67
2021/09/05 04:36:47;;;;;;;0.67;0.67;;;12.30;99.90;;;;;;5053602;28;20629;-67
2021/09/05 04:39:12;;;;;;;0.30;0.10;;;12.30;99.90;;;;;;5052643;28;20181;-63
2021/09/05 04:41:38;;;;;;;0.30;0.20;;;12.40;99.90;;;;;;5053696;28;20506;-67
2021/09/05 04:44:04;;;;;;;0.30;0.20;;;12.40;99.90;;;;;;5052772;28;20211;-66
2021/09/05 04:46:30;;;;;;;0.30;0.20;;;12.50;99.90;;;;;;5053652;28;20584;-63
2021/09/05 04:48:55;;;;;;;0.30;0.10;;;12.60;99.90;;;;;;5054646;28;20423;-63
2021/09/05 04:51:21;;;;;;;0.30;0.20;;;12.40;99.90;;;;;;5057675;28;20255;-66
2021/09/05 04:53:46;;;;;;;0.30;0.20;;;12.40;99.90;;;;;;5057739;28;20176;-66
2021/09/05 04:56:14;;;;;;;0.30;0.20;;;12.50;99.90;;;;;;5056764;28;20269;-67
2021/09/05 04:58:40;;;;;;;0.30;0.20;;;12.40;99.90;;;;;;5057126;28;20270;-67
2021/09/05 05:01:06;;;;;;;0.30;0.10;;;12.50;99.90;;;;;;5057525;28;20179;-67
2021/09/05 05:03:31;;;;;;;0.30;0.20;;;12.40;99.90;;;;;;5057468;28;20181;-67
2021/09/05 05:05:57;;;;;;;0.30;0.17;;;12.40;99.90;;;;;;5057463;28;20211;-67
2021/09/05 05:08:22;;;;;;;0.40;0.33;;;12.40;99.90;;;;;;5057255;28;20686;-62
2021/09/05 05:10:48;;;;;;;0.30;0.20;;;12.40;99.90;;;;;;5057299;28;20192;-62
2021/09/05 05:13:14;;;;;;;0.30;0.20;;;12.40;99.90;;;;;;5056265;28;20189;-62
2021/09/05 05:15:39;;;;;;;0.30;0.20;;;12.40;99.90;;;;;;5057539;28;20176;-62
2021/09/05 05:18:05;;;;;;;0.30;0.20;;;12.50;99.90;;;;;;5057013;28;20291;-62
2021/09/05 05:20:30;;;;;;;0.30;0.17;;;12.70;99.90;;;;;;5057140;28;20498;-62
2021/09/05 05:22:57;;;;;;;0.30;0.20;;;13.00;99.90;;;;;;5057059;28;20203;-62
2021/09/05 05:25:23;;;;;;;0.30;0.20;;;12.90;99.90;;;;;;5056971;28;20185;-67
2021/09/05 05:27:48;;;;;;;0.30;0.20;;;13.10;99.90;;;;;;5056034;28;20181;-63
2021/09/05 05:30:14;;;;;;;0.30;0.10;;;13.60;99.90;;;;;;5056808;28;20192;-67
2021/09/05 05:32:39;;;;;;;0.70;0.70;;;14.50;99.90;;;;;;5056923;28;20628;-67
2021/09/05 05:35:06;;;;;;;0.30;0.13;;;14.80;99.90;;;;;;5056922;28;20275;-67
2021/09/05 05:37:32;;;;;;;0.30;0.20;;;15.40;99.90;;;;;;5056602;28;20251;-67
2021/09/05 05:39:57;;;;;;;3.83;0.67;;;17.10;99.90;;;;;;5056577;28;20177;-67
2021/09/05 05:42:23;;;;;;;0.73;0.73;;;17.10;99.90;;;;;;5056823;28;20260;-67
2021/09/05 05:44:48;;;;;;;0.30;0.20;;;17.60;99.90;;;;;;5056698;28;20612;-67
2021/09/05 05:47:17;;;;;;;0.30;0.20;;;18.20;1.00;;;;;;5056627;28;20179;-68
2021/09/05 05:49:46;;;;;;;0.30;0.20;;;18.70;99.90;;;;;;5056406;28;20504;-67
2021/09/05 05:52:14;;;;;;;0.30;0.13;;;18.30;1.00;;;;;;5056605;28;20172;-67
2021/09/05 05:54:40;;;;;;;0.30;0.20;;;18.80;99.90;;;;;;5056787;28;20442;-68
2021/09/05 05:57:06;;;;;;;0.40;0.20;;;20.10;99.90;;;;;;5056369;28;20197;-67
2021/09/05 05:59:32;;;;;;;0.40;0.20;;;19.90;1.00;;;;;;5056131;28;20199;-67
2021/09/05 06:01:59;;;;;;;0.40;0.20;;;20.00;99.90;;;;;;5056475;28;20424;-67
2021/09/05 06:04:24;;;;;;;0.40;0.20;;;21.00;1.00;;;;;;5056282;28;20598;-67
2021/09/05 06:06:52;;;;;;;0.70;0.70;;;20.20;99.90;;;;;;5056340;28;20526;-67
2021/09/05 06:09:18;;;;;;;0.40;0.20;;;20.40;1.00;;;;;;5056301;28;20254;-67
2021/09/05 06:11:43;;;;;;;0.40;0.20;;;21.20;34.00;;;;;;5056449;28;20451;-68
2021/09/05 06:14:09;;;;;;;0.40;0.20;;;22.40;99.90;;;;;;5056220;28;20268;-68
2021/09/05 06:16:34;;;;;;;0.40;0.20;;;21.90;99.90;;;;;;5056049;28;20572;-68
2021/09/05 06:19:00;;;;;;;0.40;0.20;;;20.60;1.00;;;;;;5055855;28;20173;-67
2021/09/05 06:21:26;;;;;;;0.40;0.20;;;19.70;1.00;;;;;;5056034;28;20614;-67
2021/09/05 06:23:52;;;;;;;0.40;0.20;;;20.30;99.90;;;;;;5056203;28;20177;-67
2021/09/05 06:26:17;;;;;;;0.80;0.43;;;20.60;1.00;;;;;;5055971;28;20430;-67
2021/09/05 06:28:43;;;;;;;0.40;0.20;;;20.20;1.00;;;;;;5056101;28;20187;-67
2021/09/05 06:31:08;;;;;;;0.40;0.20;;;20.40;69.70;;;;;;5056185;28;20181;-67
2021/09/05 06:33:34;;;;;;;0.40;0.20;;;21.10;1.00;;;;;;5055777;28;20191;-67
2021/09/05 06:36:00;;;;;;;0.40;0.20;;;21.70;99.90;;;;;;5055880;28;20556;-68
2021/09/05 06:38:25;;;;;;;0.50;0.20;;;21.80;99.90;;;;;;5055632;28;20211;-67
2021/09/05 06:40:51;;;;;;;0.40;0.20;;;21.20;99.90;;;;;;5054714;28;20188;-68
2021/09/05 06:43:16;;;;;;;0.40;0.20;;;22.00;99.90;;;;;;5055709;28;20192;-68
2021/09/05 06:45:42;;;;;;;0.40;0.10;;;22.10;99.90;;;;;;5055896;28;20173;-67
2021/09/05 06:48:08;;;;;;;0.60;0.30;;;22.30;99.90;;;;;;5055436;28;20518;-67
2021/09/05 06:50:33;;;;;;;0.40;0.20;;;21.10;99.90;;;;;;5055876;28;20526;-67
2021/09/05 06:52:59;;;;;;;0.40;0.27;;;20.80;99.90;;;;;;5055333;28;20205;-67
2021/09/05 06:55:25;;;;;;;3.13;2.83;;;21.00;99.90;;;;;;5055528;28;20184;-67
2021/09/05 06:57:51;;;;;;;0.40;0.20;;;19.60;50.80;;;;;;5055139;28;20658;-67
2021/09/05 07:00:16;;;;;;;0.60;0.20;;;18.70;1.00;;;;;;5055087;28;20461;-67
2021/09/05 07:02:42;;;;;;;0.40;0.17;;;17.10;1.00;;;;;;5055289;28;20177;-67
2021/09/05 07:05:08;;;;;;;0.40;0.20;;;16.50;1.00;;;;;;5055267;28;20184;-67
2021/09/05 07:07:33;;;;;;;0.40;0.30;;;16.20;99.90;;;;;;5054998;28;20275;-67
2021/09/05 07:10:00;;;;;;;0.40;0.20;;;16.30;99.90;;;;;;5054923;28;20227;-68
2021/09/05 07:12:25;;;;;;;0.40;0.20;;;16.40;99.90;;;;;;5054376;28;20192;-67
2021/09/05 07:14:51;;;;;;;0.40;0.20;;;16.50;99.90;;;;;;5055076;28;20169;-67
2021/09/05 07:17:18;;;;;;;0.97;0.57;;;16.60;27.90;;;;;;5054836;28;20227;-67
2021/09/05 07:19:43;;;;;;;0.40;0.17;;;16.40;27.30;;;;;;5054942;28;20178;-67
2021/09/05 07:22:09;;;;;;;0.40;0.20;;;16.10;99.90;;;;;;5051932;28;20192;-63
2021/09/05 07:24:34;;;;;;;0.40;0.20;;;15.80;99.90;;;;;;5050944;28;20193;-62
2021/09/05 07:27:00;;;;;;;0.40;0.20;;;15.80;1.00;;;;;;5038656;28;20198;-62
2021/09/05 07:29:25;;;;;;;0.40;0.20;;;15.60;1.00;;;;;;5035183;28;20186;-63
2021/09/05 07:31:51;;;;;;;0.40;0.20;;;15.40;1.00;;;;;;5034961;28;20591;-63
2021/09/05 07:34:16;;;;;;;0.40;0.10;;;15.40;1.00;;;;;;5034692;28;20625;-63
2021/09/05 07:36:42;;;;;;;0.53;0.30;;;15.50;1.00;;;;;;5034285;28;20181;-63
2021/09/05 07:39:11;;;;;;;0.40;0.20;;;15.50;1.00;;;;;;5034417;28;20517;-63
2021/09/05 07:41:37;;;;;;;0.40;0.20;;;15.60;1.00;;;;;;5034420;28;20177;-63
2021/09/05 07:44:03;;;;;;;0.40;0.20;;;15.90;1.00;;;;;;5034532;28;20431;-63
2021/09/05 07:46:28;;;;;;;0.40;0.20;;;15.50;1.00;;;;;;5033468;28;20185;-63
2021/09/05 07:48:54;;;;;;;0.50;0.40;;;15.20;1.00;;;;;;5034211;28;20193;-63
2021/09/05 07:51:24;;;;;;;2.10;1.97;;;15.40;1.00;;;;;;5034181;28;20634;-63
2021/09/05 07:53:53;;;;;;;0.40;0.20;;;15.50;1.00;;;;;;5034460;28;20196;-63
2021/09/05 07:56:20;;;;;;;0.40;0.20;;;15.80;1.00;;;;;;5042245;28;20431;-63
2021/09/05 07:58:46;;;;;;;0.60;0.40;;;16.00;1.00;;;;;;5054140;28;20369;-68
2021/09/05 08:01:12;;;;;;;2.50;1.07;;;16.00;99.90;;;;;;5047617;28;20177;-69
2021/09/05 08:03:39;;;;;;;0.40;0.30;;;16.30;99.90;;;;;;5050624;28;20458;-67
2021/09/05 08:06:05;;;;;;;18.52;1.52;;;15.80;1.00;;;;;;5053117;28;20181;-67
2021/09/05 08:08:31;;;;;;;0.80;0.50;;;16.00;99.90;;;;;;5042331;28;20212;-68
2021/09/05 08:10:56;;;;;;;1.57;1.13;;;15.80;1.00;;;;;;5051475;28;20613;-68
2021/09/05 08:13:22;;;;;;;0.40;0.20;;;15.90;99.90;;;;;;5053799;28;20185;-68
2021/09/05 08:15:47;;;;;;;0.40;0.20;;;15.70;99.90;;;;;;5053766;28;20192;-68
2021/09/05 08:18:13;;;;;;;0.50;0.47;;;16.00;99.90;;;;;;5052406;28;20245;-68
2021/09/05 08:20:39;;;;;;;0.60;0.30;;;16.30;99.90;;;;;;5053692;28;20586;-68
2021/09/05 08:23:04;;;;;;;0.40;0.30;;;16.30;99.90;;;;;;5053729;28;20185;-68
2021/09/05 08:25:30;;;;;;;0.40;0.20;;;16.40;99.90;;;;;;5053547;28;20618;-69
2021/09/05 08:27:55;;;;;;;0.40;0.20;;;16.40;99.90;;;;;;5052444;28;20685;-68
2021/09/05 08:30:21;;;;;;;8.70;2.10;;;16.50;99.90;;;;;;5054026;28;20185;-69
2021/09/05 08:32:50;;;;;;;0.40;0.20;;;16.30;99.90;;;;;;5036221;28;20176;-65
2021/09/05 08:35:15;;;;;;;0.40;0.20;;;16.40;99.90;;;;;;5054231;28;20660;-65
2021/09/05 08:37:41;;;;;;;0.40;0.20;;;16.60;99.90;;;;;;5054204;28;20212;-65
2021/09/05 08:40:08;;;;;;;0.40;0.30;;;16.80;99.90;;;;;;5053112;28;20189;-65
2021/09/05 08:42:35;;;;;;;0.40;0.20;;;16.90;99.90;;;;;;5054031;28;20173;-65
2021/09/05 08:45:02;;;;;;;0.50;0.37;;;17.00;2.60;;;;;;5054041;28;20485;-66
2021/09/05 08:47:33;;;;;;;0.40;0.20;;;16.70;1.00;;;;;;5052322;28;20534;-66
2021/09/05 08:50:01;;;;;;;0.50;0.30;;;16.60;99.90;;;;;;5054163;28;20526;-67
2021/09/05 08:52:26;;;;;;;0.40;0.20;;;16.60;59.00;;;;;;5053917;28;20443;-66
2021/09/05 08:54:52;;;;;;;0.40;0.20;;;16.60;99.90;;;;;;5052731;28;20431;-66
2021/09/05 08:57:18;;;;;;;0.40;0.20;;;16.80;1.00;;;;;;5052915;28;20291;-66
2021/09/05 08:59:43;;;;;;;0.40;0.20;;;16.70;1.00;;;;;;5053587;28;20458;-66
2021/09/05 09:02:09;;;;;;;0.40;0.20;;;16.70;12.20;;;;;;5053768;28;20181;-68
2021/09/05 09:04:38;;;;;;;0.87;0.87;;;16.70;1.00;;;;;;5053391;28;20235;-67
2021/09/05 09:07:11;;;;;;;1.00;0.90;;;16.70;6.20;;;;;;5053031;28;20173;-67
2021/09/05 09:09:42;;;;;;;0.60;0.30;;;16.70;99.90;;;;;;5052982;28;20431;-67
2021/09/05 09:12:08;;;;;;;0.50;0.30;;;16.90;25.50;;;;;;5053340;28;20892;-69
2021/09/05 09:14:41;;;;;;;0.83;0.83;;;17.10;1.00;;;;;;5052858;28;20431;-68
2021/09/05 09:17:09;;;;;;;0.77;0.57;;;17.10;1.00;;;;;;5047457;28;20213;-68
2021/09/05 09:19:35;;;;;;;0.40;0.20;;;17.30;1.00;;;;;;5049665;28;20438;-69
2021/09/05 09:22:04;;;;;;;0.40;0.20;;;17.40;99.90;;;;;;5052349;28;20515;-68
2021/09/05 09:24:40;;;;;;;0.50;0.40;;;17.50;1.00;;;;;;5049225;28;20447;-68
2021/09/05 09:27:06;;;;;;;0.60;0.60;;;17.40;99.90;;;;;;5047106;28;20969;-68
2021/09/05 09:29:34;;;;;;;0.50;0.30;;;17.30;99.90;;;;;;5045519;28;20443;-68
2021/09/05 09:32:16;;;;;;;0.40;0.10;;;17.50;99.90;;;;;;5050394;28;20443;-68
2021/09/05 09:34:46;;;;;;;0.40;0.20;;;17.80;99.90;;;;;;5052989;28;20479;-67
2021/09/05 09:37:14;;;;;;;0.83;0.83;;;17.90;1.00;;;;;;5056650;28;20838;-67
2021/09/05 09:39:52;;;;;;;0.40;0.20;;;18.10;1.00;;;;;;5050072;28;20450;-68
2021/09/05 09:42:37;;;;;;;0.50;0.20;;;18.30;99.90;;;;;;5053865;28;20438;-68
2021/09/05 09:45:13;;;;;;;0.40;0.20;;;18.20;1.00;;;;;;5054394;28;20522;-69
2021/09/05 09:47:46;;;;;;;0.40;0.20;;;18.20;18.80;;;;;;5056743;28;20477;-69
2021/09/05 09:50:13;;;;;;;0.43;0.27;;;18.40;1.00;;;;;;5056604;28;20483;-69
2021/09/05 09:52:39;;;;;;;0.40;0.20;;;18.50;1.00;;;;;;5056711;28;20462;-65
2021/09/05 09:55:05;;;;;;;1.23;1.13;;;18.40;99.90;;;;;;5055204;28;20442;-66
2021/09/05 09:57:31;;;;;;;0.93;0.93;;;18.00;1.00;;;;;;5056239;28;20577;-69
2021/09/05 09:59:57;;;;;;;0.40;0.20;;;18.10;99.90;;;;;;5056643;28;20477;-71
2021/09/05 10:02:25;;;;;;;0.40;0.20;;;18.40;15.20;;;;;;5056883;28;20318;-66
2021/09/05 10:04:54;;;;;;;1.63;1.00;;;18.60;99.90;;;;;;5056887;28;20184;-66
2021/09/05 10:07:22;;;;;;;2.40;0.70;;;18.50;99.90;;;;;;5056345;28;20884;-66
2021/09/05 10:09:49;;;;;;;45.17;3.47;;;18.10;99.90;;;;;;5055893;28;20435;-66
2021/09/05 10:12:16;;;;;;;1.30;1.20;;;17.70;1.00;;;;;;5055123;28;20439;-67
2021/09/05 10:14:53;;;;;;;0.40;0.20;;;17.80;1.00;;;;;;5054798;28;20847;-67
2021/09/05 10:17:22;;;;;;;0.40;0.20;;;18.00;1.00;;;;;;5054199;28;20909;-66
2021/09/05 10:19:49;;;;;;;0.60;0.33;;;18.40;1.20;;;;;;5055163;28;20433;-66
2021/09/05 10:22:19;;;;;;;2.10;0.50;;;18.70;99.90;;;;;;5056104;28;20757;-65
2021/09/05 10:24:48;;;;;;;0.40;0.20;;;18.90;1.00;;;;;;5056127;28;20439;-65
2021/09/05 10:27:15;;;;;;;0.70;0.47;;;19.00;35.50;;;;;;5049335;28;20789;-66
2021/09/05 10:30:05;;;;;;;0.40;0.20;;;19.10;99.90;;;;;;5050396;28;20442;-65
2021/09/05 10:32:47;;;;;;;1.80;0.97;;;19.20;1.00;;;;;;5049745;28;20431;-65
2021/09/05 10:35:25;;;;;;;0.70;0.50;;;18.80;1.00;;;;;;5055912;28;20486;-65
2021/09/05 10:38:11;;;;;;;1.17;0.50;;;18.90;99.90;;;;;;5055596;28;20919;-66
2021/09/05 10:40:42;;;;;;;0.40;0.20;;;18.80;1.00;;;;;;5055148;28;20508;-65
2021/09/05 10:43:08;;;;;;;0.40;0.10;;;18.90;1.00;;;;;;5055085;28;20435;-66
2021/09/05 10:45:36;;;;;;;0.47;0.27;;;19.10;1.00;;;;;;5055190;28;20462;-66
2021/09/05 10:48:02;;;;;;;1.23;0.80;;;19.10;1.00;;;;;;5054864;28;20433;-66
2021/09/05 10:50:34;;;;;;;0.40;0.20;;;19.10;1.30;;;;;;5055466;28;20522;-66
2021/09/05 10:53:20;;;;;;;0.50;0.30;;;18.80;1.00;;;;;;5054847;28;20816;-66
2021/09/05 10:56:07;;;;;;;1.23;1.13;;;18.70;1.00;;;;;;5056736;28;20494;-67
2021/09/05 10:58:45;;;;;;;0.40;0.10;;;18.90;99.90;;;;;;5053832;28;20629;-66
2021/09/05 11:01:21;;;;;;;0.40;0.20;;;19.00;1.00;;;;;;5055110;28;20733;-67
2021/09/05 11:04:15;;;;;;;0.80;0.60;;;19.50;1.00;;;;;;5055120;28;20423;-67
2021/09/05 11:06:45;;;;;;;0.50;0.27;;;19.90;1.00;;;;;;5054887;28;20434;-67
2021/09/05 11:12:11;;;;;;;2.63;2.43;;;20.40;99.90;;;;;;5055206;28;20820;-65
2021/09/05 11:14:40;;;;;;;0.40;0.20;;;20.40;99.90;;;;;;5055124;28;20443;-66
2021/09/05 11:17:08;;;;;;;0.63;0.37;;;20.50;99.90;;;;;;5054582;28;20459;-68
2021/09/05 11:19:41;;;;;;;0.97;0.37;;;20.50;1.00;;;;;;5054926;28;20485;-66
2021/09/05 11:22:07;;;;;;;0.40;0.20;;;20.30;99.90;;;;;;5054812;28;20419;-67
2021/09/05 11:24:34;;;;;;;0.60;0.37;;;20.40;99.90;;;;;;5054900;28;20439;-66
2021/09/05 11:27:04;;;;;;;0.50;0.20;;;20.10;1.00;;;;;;5054694;28;20435;-68
2021/09/05 11:29:29;;;;;;;0.40;0.10;;;19.90;20.10;;;;;;5054877;28;20789;-68
2021/09/05 11:32:12;;;;;;;0.50;0.40;;;19.70;1.00;;;;;;5054783;28;20423;-68
2021/09/05 11:34:52;;;;;;;0.40;0.20;;;19.90;99.90;;;;;;5051469;28;20197;-69
2021/09/05 11:37:28;;;;;;;0.40;0.20;;;20.00;99.90;;;;;;5051637;28;20468;-68
2021/09/05 11:39:54;;;;;;;0.40;0.20;;;20.00;99.90;;;;;;5054121;28;20446;-69
2021/09/05 11:42:20;;;;;;;0.40;0.20;;;19.70;99.90;;;;;;5052776;28;20502;-68
2021/09/05 11:44:46;;;;;;;0.40;0.20;;;20.00;1.00;;;;;;5054129;28;20759;-67
2021/09/05 11:47:19;;;;;;;0.50;0.33;;;20.30;1.00;;;;;;5054240;28;20436;-67
2021/09/05 11:49:54;;;;;;;1.13;1.03;;;20.30;99.90;;;;;;5053873;28;20246;-66
2021/09/05 11:52:31;;;;;;;0.90;0.63;;;20.30;99.90;;;;;;5054305;28;20423;-65
2021/09/05 11:55:09;;;;;;;1.27;1.17;;;20.50;99.90;;;;;;5053083;28;20463;-68
2021/09/05 11:57:38;;;;;;;0.40;0.20;;;20.60;99.90;;;;;;5053121;28;20466;-68
2021/09/05 12:00:07;;;;;;;0.80;0.80;;;20.80;99.90;;;;;;5053920;28;20510;-68
2021/09/05 12:02:35;;;;;;;2.43;1.03;;;20.70;1.00;;;;;;5054239;28;20427;-68
2021/09/05 12:05:03;;;;;;;0.50;0.43;;;20.80;99.90;;;;;;5053828;28;20868;-69
2021/09/05 12:07:31;;;;;;;0.70;0.60;;;20.90;99.90;;;;;;5052923;28;20439;-68
2021/09/05 12:10:09;;;;;;;0.40;0.20;;;20.90;33.00;;;;;;5053381;28;20435;-68
2021/09/05 12:12:39;;;;;;;2.30;0.40;;;20.80;52.50;;;;;;5053945;28;20431;-68
2021/09/05 12:15:32;;;;;;;0.60;0.40;;;20.60;99.90;;;;;;5053761;28;20454;-68
2021/09/05 12:17:57;;;;;;;0.63;0.63;;;20.60;99.90;;;;;;5052668;28;20471;-68
2021/09/05 12:20:24;;;;;;;0.50;0.30;;;20.80;99.90;;;;;;5053380;28;20506;-68
2021/09/05 12:22:51;;;;;;;16.20;15.20;;;20.80;1.00;;;;;;5053410;28;20232;-67
2021/09/05 12:25:46;;;;;;;0.40;0.20;;;20.90;8.30;;;;;;5053969;28;20443;-67
2021/09/05 12:28:17;;;;;;;2.17;0.97;;;20.90;1.00;;;;;;5048306;28;21064;-68
2021/09/05 12:30:58;;;;;;;1.37;0.83;;;20.90;1.00;;;;;;5053633;28;20415;-67
2021/09/05 12:33:26;;;;;;;0.40;0.20;;;20.40;1.00;;;;;;5052231;28;20451;-64
2021/09/05 12:35:55;;;;;;;0.40;0.20;;;20.20;1.00;;;;;;5053895;28;20432;-64
2021/09/05 12:38:32;;;;;;;0.40;0.20;;;20.40;1.00;;;;;;5048696;28;20553;-64
2021/09/05 12:41:12;;;;;;;0.40;0.20;;;20.70;99.90;;;;;;5053868;28;20446;-64
2021/09/05 12:43:52;;;;;;;0.40;0.10;;;20.90;99.90;;;;;;5053611;28;20449;-66
2021/09/05 12:46:37;;;;;;;0.97;0.70;;;20.80;1.00;;;;;;5053573;28;20431;-65
2021/09/05 12:49:14;;;;;;;0.40;0.20;;;20.80;1.00;;;;;;5054020;28;20431;-67
2021/09/05 12:51:46;;;;;;;1.83;0.83;;;20.90;99.90;;;;;;5053841;28;20431;-66
2021/09/05 12:54:12;;;;;;;1.00;0.53;;;20.90;99.90;;;;;;5053563;28;20431;-65
2021/09/05 12:56:39;;;;;;;0.50;0.20;;;20.90;99.90;;;;;;5053214;28;20496;-65